sensor_id;sensor_type;location;lat;lon;timestamp;temperature;humidity
3466;DHT22;1747;48.884;9.160;2023-03-01T00:02:06;2.20;99.90
3466;DHT22;1747;48.884;9.160;2023-03-01T00:04:33;2.20;99.90
3466;DHT22;1747;48.884;9.160;2023-03-01T00:07:02;2.10;99.90
3466;DHT22;1747;48.884;9.160;2023-03-01T00:09:29;2.10;99.90
3466;DHT22;1747;48.884;9.160;2023-03-01T00:11:56;2.00;99.90
3466;DHT22;1747;48.884;9.160;2023-03-01T00:14:24;2.00;99.90
3466;DHT22;1747;48.884;9.160;2023-03-01T00:16:51;2.00;99.90
3466;DHT22;1747;48.884;9.160;2023-03-01T00:19:19;2.00;99.90
3466;DHT22;1747;48.884;9.160;2023-03-01T00:21:47;2.00;99.90
3466;DHT22;1747;48.884;9.160;2023-03-01T00:24:14;2.00;99.90
3466;DHT22;1747;48.884;9.160;2023-03-01T00:26:41;2.00;99.90
3466;DHT22;1747;48.884;9.160;2023-03-01T00:29:08;1.90;99.90
3466;DHT22;1747;48.884;9.160;2023-03-01T00:31:36;1.90;99.90
3466;DHT22;1747;48.884;9.160;2023-03-01T00:34:04;1.90;99.90
3466;DHT22;1747;48.884;9.160;2023-03-01T00:36:33;1.90;99.90
3466;DHT22;1747;48.884;9.160;2023-03-01T00:39:01;1.90;99.90
3466;DHT22;1747;48.884;9.160;2023-03-01T00:41:29;1.90;99.90
3466;DHT22;1747;48.884;9.160;2023-03-01T00:43:56;1.90;99.90
3466;DHT22;1747;48.884;9.160;2023-03-01T00:46:25;1.90;99.90
3466;DHT22;1747;48.884;9.160;2023-03-01T00:48:54;1.90;99.90
3466;DHT22;1747;48.884;9.160;2023-03-01T00:51:23;1.90;99.90
3466;DHT22;1747;48.884;9.160;2023-03-01T00:53:51;1.80;99.90
3466;DHT22;1747;48.884;9.160;2023-03-01T00:56:19;1.80;99.90
3466;DHT22;1747;48.884;9.160;2023-03-01T00:58:46;1.80;99.90
3466;DHT22;1747;48.884;9.160;2023-03-01T01:01:16;1.70;99.90
3466;DHT22;1747;48.884;9.160;2023-03-01T01:03:46;1.70;99.90
3466;DHT22;1747;48.884;9.160;2023-03-01T01:06:19;1.70;99.90
3466;DHT22;1747;48.884;9.160;2023-03-01T01:08:46;1.60;99.90
3466;DHT22;1747;48.884;9.160;2023-03-01T01:11:13;1.60;99.90
3466;DHT22;1747;48.884;9.160;2023-03-01T01:13:41;1.60;99.90
3466;DHT22;1747;48.884;9.160;2023-03-01T01:16:08;1.60;99.90
3466;DHT22;1747;48.884;9.160;2023-03-01T01:18:37;1.60;99.90
3466;DHT22;1747;48.884;9.160;2023-03-01T01:21:05;1.70;99.90
3466;DHT22;1747;48.884;9.160;2023-03-01T01:23:34;1.70;99.90
3466;DHT22;1747;48.884;9.160;2023-03-01T01:26:05;1.60;99.90
3466;DHT22;1747;48.884;9.160;2023-03-01T01:28:32;1.60;99.90
3466;DHT22;1747;48.884;9.160;2023-03-01T01:30:59;1.50;99.90
3466;DHT22;1747;48.884;9.160;2023-03-01T01:33:26;1.50;99.90
3466;DHT22;1747;48.884;9.160;2023-03-01T01:35:53;1.50;99.90
3466;DHT22;1747;48.884;9.160;2023-03-01T01:38:20;1.60;99.90
3466;DHT22;1747;48.884;9.160;2023-03-01T01:40:50;1.60;99.90
3466;DHT22;1747;48.884;9.160;2023-03-01T01:43:20;1.60;99.90
3466;DHT22;1747;48.884;9.160;2023-03-01T01:45:47;1.60;99.90
3466;DHT22;1747;48.884;9.160;2023-03-01T01:48:18;1.50;99.90
3466;DHT22;1747;48.884;9.160;2023-03-01T01:50:53;1.50;99.90
3466;DHT22;1747;48.884;9.160;2023-03-01T01:53:22;1.50;99.90
3466;DHT22;1747;48.884;9.160;2023-03-01T01:55:55;1.40;99.90
3466;DHT22;1747;48.884;9.160;2023-03-01T01:58:24;1.40;99.90
3466;DHT22;1747;48.884;9.160;2023-03-01T02:00:52;1.40;99.90
3466;DHT22;1747;48.884;9.160;2023-03-01T02:03:24;1.40;99.90
3466;DHT22;1747;48.884;9.160;2023-03-01T02:05:57;1.40;99.90
3466;DHT22;1747;48.884;9.160;2023-03-01T02:08:28;1.40;99.90
3466;DHT22;1747;48.884;9.160;2023-03-01T02:10:58;1.40;99.90
3466;DHT22;1747;48.884;9.160;2023-03-01T02:13:26;1.40;99.90
3466;DHT22;1747;48.884;9.160;2023-03-01T02:15:53;1.40;99.90
3466;DHT22;1747;48.884;9.160;2023-03-01T02:18:21;1.40;99.90
3466;DHT22;1747;48.884;9.160;2023-03-01T02:20:58;1.40;99.90
3466;DHT22;1747;48.884;9.160;2023-03-01T02:23:27;1.40;99.90
3466;DHT22;1747;48.884;9.160;2023-03-01T02:26:00;1.40;99.90
3466;DHT22;1747;48.884;9.160;2023-03-01T02:28:31;1.40;99.90
3466;DHT22;1747;48.884;9.160;2023-03-01T02:30:58;1.40;99.90
3466;DHT22;1747;48.884;9.160;2023-03-01T02:33:43;1.40;99.90
3466;DHT22;1747;48.884;9.160;2023-03-01T02:36:14;1.50;99.90
3466;DHT22;1747;48.884;9.160;2023-03-01T02:38:42;1.50;99.90
3466;DHT22;1747;48.884;9.160;2023-03-01T02:41:10;1.50;99.90
3466;DHT22;1747;48.884;9.160;2023-03-01T02:43:39;1.50;99.90
3466;DHT22;1747;48.884;9.160;2023-03-01T02:46:08;1.50;99.90
3466;DHT22;1747;48.884;9.160;2023-03-01T02:48:44;1.50;99.90
3466;DHT22;1747;48.884;9.160;2023-03-01T02:51:34;1.50;99.90
3466;DHT22;1747;48.884;9.160;2023-03-01T02:54:12;1.50;99.90
3466;DHT22;1747;48.884;9.160;2023-03-01T02:56:43;1.60;99.90
3466;DHT22;1747;48.884;9.160;2023-03-01T02:59:15;1.60;99.90
3466;DHT22;1747;48.884;9.160;2023-03-01T03:01:42;1.60;99.90
3466;DHT22;1747;48.884;9.160;2023-03-01T03:04:13;1.60;99.90
3466;DHT22;1747;48.884;9.160;2023-03-01T03:06:42;1.70;99.90
3466;DHT22;1747;48.884;9.160;2023-03-01T03:09:10;1.70;99.90
3466;DHT22;1747;48.884;9.160;2023-03-01T03:11:37;1.70;99.90
3466;DHT22;1747;48.884;9.160;2023-03-01T03:14:05;1.70;99.90
3466;DHT22;1747;48.884;9.160;2023-03-01T03:16:40;1.80;99.90
3466;DHT22;1747;48.884;9.160;2023-03-01T03:19:07;1.80;99.90
3466;DHT22;1747;48.884;9.160;2023-03-01T03:21:34;1.80;99.90
3466;DHT22;1747;48.884;9.160;2023-03-01T03:24:01;1.80;99.90
3466;DHT22;1747;48.884;9.160;2023-03-01T03:26:28;1.90;99.90
3466;DHT22;1747;48.884;9.160;2023-03-01T03:28:55;1.90;99.90
3466;DHT22;1747;48.884;9.160;2023-03-01T03:31:22;1.90;99.90
3466;DHT22;1747;48.884;9.160;2023-03-01T03:33:50;2.00;99.90
3466;DHT22;1747;48.884;9.160;2023-03-01T03:36:17;2.00;99.90
3466;DHT22;1747;48.884;9.160;2023-03-01T03:38:45;2.00;99.90
3466;DHT22;1747;48.884;9.160;2023-03-01T03:41:12;2.00;99.90
3466;DHT22;1747;48.884;9.160;2023-03-01T03:43:41;2.00;99.90
3466;DHT22;1747;48.884;9.160;2023-03-01T03:46:09;2.00;99.90
3466;DHT22;1747;48.884;9.160;2023-03-01T03:48:40;2.00;99.90
3466;DHT22;1747;48.884;9.160;2023-03-01T03:51:10;2.00;99.90
3466;DHT22;1747;48.884;9.160;2023-03-01T03:53:37;2.00;99.90
3466;DHT22;1747;48.884;9.160;2023-03-01T03:56:05;2.00;99.90
3466;DHT22;1747;48.884;9.160;2023-03-01T03:58:32;2.00;99.90
3466;DHT22;1747;48.884;9.160;2023-03-01T04:00:59;2.00;99.90
3466;DHT22;1747;48.884;9.160;2023-03-01T04:03:28;1.90;99.90
3466;DHT22;1747;48.884;9.160;2023-03-01T04:05:57;2.00;99.90
3466;DHT22;1747;48.884;9.160;2023-03-01T04:08:26;2.00;99.90
3466;DHT22;1747;48.884;9.160;2023-03-01T04:10:58;2.00;99.90
3466;DHT22;1747;48.884;9.160;2023-03-01T04:13:26;1.90;99.90
3466;DHT22;1747;48.884;9.160;2023-03-01T04:15:54;2.00;99.90
3466;DHT22;1747;48.884;9.160;2023-03-01T04:18:22;2.10;99.90
3466;DHT22;1747;48.884;9.160;2023-03-01T04:20:50;2.10;99.90
3466;DHT22;1747;48.884;9.160;2023-03-01T04:23:20;2.10;99.90
3466;DHT22;1747;48.884;9.160;2023-03-01T04:25:51;2.10;99.90
3466;DHT22;1747;48.884;9.160;2023-03-01T04:28:21;2.10;99.90
3466;DHT22;1747;48.884;9.160;2023-03-01T04:30:49;2.10;99.90
3466;DHT22;1747;48.884;9.160;2023-03-01T04:33:17;2.10;99.90
3466;DHT22;1747;48.884;9.160;2023-03-01T04:35:45;2.10;99.90
3466;DHT22;1747;48.884;9.160;2023-03-01T04:38:15;2.10;99.90
3466;DHT22;1747;48.884;9.160;2023-03-01T04:40:42;2.10;99.90
3466;DHT22;1747;48.884;9.160;2023-03-01T04:43:11;2.10;99.90
3466;DHT22;1747;48.884;9.160;2023-03-01T04:45:39;2.10;99.90
3466;DHT22;1747;48.884;9.160;2023-03-01T04:48:06;2.10;99.90
3466;DHT22;1747;48.884;9.160;2023-03-01T04:50:33;2.10;99.90
3466;DHT22;1747;48.884;9.160;2023-03-01T04:53:01;2.00;99.90
3466;DHT22;1747;48.884;9.160;2023-03-01T04:55:29;2.10;99.90
3466;DHT22;1747;48.884;9.160;2023-03-01T04:57:56;2.10;99.90
3466;DHT22;1747;48.884;9.160;2023-03-01T05:00:24;2.10;99.90
3466;DHT22;1747;48.884;9.160;2023-03-01T05:02:52;2.00;99.90
3466;DHT22;1747;48.884;9.160;2023-03-01T05:05:25;2.10;99.90
3466;DHT22;1747;48.884;9.160;2023-03-01T05:07:54;2.10;99.90
3466;DHT22;1747;48.884;9.160;2023-03-01T05:10:21;2.10;99.90
3466;DHT22;1747;48.884;9.160;2023-03-01T05:12:48;2.00;99.90
3466;DHT22;1747;48.884;9.160;2023-03-01T05:15:15;2.00;99.90
3466;DHT22;1747;48.884;9.160;2023-03-01T05:17:43;2.00;99.90
3466;DHT22;1747;48.884;9.160;2023-03-01T05:20:11;2.10;99.90
3466;DHT22;1747;48.884;9.160;2023-03-01T05:22:38;2.10;99.90
3466;DHT22;1747;48.884;9.160;2023-03-01T05:25:06;2.10;99.90
3466;DHT22;1747;48.884;9.160;2023-03-01T05:27:34;2.20;99.90
3466;DHT22;1747;48.884;9.160;2023-03-01T05:30:01;2.20;99.90
3466;DHT22;1747;48.884;9.160;2023-03-01T05:32:39;2.20;99.90
3466;DHT22;1747;48.884;9.160;2023-03-01T05:35:08;2.20;99.90
3466;DHT22;1747;48.884;9.160;2023-03-01T08:41:28;3.50;99.90
3466;DHT22;1747;48.884;9.160;2023-03-01T08:43:55;3.50;99.90
3466;DHT22;1747;48.884;9.160;2023-03-01T08:46:24;3.60;99.90
3466;DHT22;1747;48.884;9.160;2023-03-01T08:48:51;3.70;99.90
3466;DHT22;1747;48.884;9.160;2023-03-01T08:51:19;3.80;99.90
3466;DHT22;1747;48.884;9.160;2023-03-01T08:53:47;3.80;99.90
3466;DHT22;1747;48.884;9.160;2023-03-01T08:56:14;3.80;99.90
3466;DHT22;1747;48.884;9.160;2023-03-01T08:58:45;3.90;99.90
3466;DHT22;1747;48.884;9.160;2023-03-01T09:01:14;3.90;99.90
3466;DHT22;1747;48.884;9.160;2023-03-01T09:03:42;4.10;99.90
3466;DHT22;1747;48.884;9.160;2023-03-01T09:06:10;4.10;99.90
3466;DHT22;1747;48.884;9.160;2023-03-01T09:08:37;4.20;99.90
3466;DHT22;1747;48.884;9.160;2023-03-01T09:11:06;4.30;99.90
3466;DHT22;1747;48.884;9.160;2023-03-01T09:13:35;4.30;99.90
3466;DHT22;1747;48.884;9.160;2023-03-01T09:16:05;4.30;99.90
3466;DHT22;1747;48.884;9.160;2023-03-01T09:18:33;4.40;99.90
3466;DHT22;1747;48.884;9.160;2023-03-01T09:21:01;4.40;99.90
3466;DHT22;1747;48.884;9.160;2023-03-01T09:23:33;4.50;99.90
3466;DHT22;1747;48.884;9.160;2023-03-01T09:26:00;4.60;99.90
3466;DHT22;1747;48.884;9.160;2023-03-01T09:28:27;4.70;99.90
3466;DHT22;1747;48.884;9.160;2023-03-01T09:30:57;4.80;99.90
3466;DHT22;1747;48.884;9.160;2023-03-01T09:33:25;4.80;99.90
3466;DHT22;1747;48.884;9.160;2023-03-01T09:35:56;4.90;99.90
3466;DHT22;1747;48.884;9.160;2023-03-01T09:38:23;5.00;99.90
3466;DHT22;1747;48.884;9.160;2023-03-01T09:40:50;5.10;99.90
3466;DHT22;1747;48.884;9.160;2023-03-01T09:43:21;5.10;99.90
3466;DHT22;1747;48.884;9.160;2023-03-01T09:45:51;5.20;99.90
3466;DHT22;1747;48.884;9.160;2023-03-01T09:48:21;5.20;99.90
3466;DHT22;1747;48.884;9.160;2023-03-01T09:50:50;5.30;99.90
3466;DHT22;1747;48.884;9.160;2023-03-01T09:53:19;5.30;99.90
3466;DHT22;1747;48.884;9.160;2023-03-01T09:55:51;5.30;99.90
3466;DHT22;1747;48.884;9.160;2023-03-01T09:58:37;5.40;99.90
3466;DHT22;1747;48.884;9.160;2023-03-01T10:01:16;5.50;99.90
3466;DHT22;1747;48.884;9.160;2023-03-01T10:04:00;5.60;99.90
3466;DHT22;1747;48.884;9.160;2023-03-01T10:06:30;5.60;99.90
3466;DHT22;1747;48.884;9.160;2023-03-01T10:08:59;5.80;99.90
3466;DHT22;1747;48.884;9.160;2023-03-01T10:11:31;5.80;99.90
3466;DHT22;1747;48.884;9.160;2023-03-01T10:14:01;5.90;99.90
3466;DHT22;1747;48.884;9.160;2023-03-01T10:16:37;6.00;99.90
3466;DHT22;1747;48.884;9.160;2023-03-01T10:19:12;6.00;99.90
3466;DHT22;1747;48.884;9.160;2023-03-01T10:21:45;6.10;99.90
3466;DHT22;1747;48.884;9.160;2023-03-01T10:24:14;6.30;99.60
3466;DHT22;1747;48.884;9.160;2023-03-01T10:26:48;6.30;99.90
3466;DHT22;1747;48.884;9.160;2023-03-01T10:29:15;6.40;99.30
3466;DHT22;1747;48.884;9.160;2023-03-01T10:31:45;6.40;99.30
3466;DHT22;1747;48.884;9.160;2023-03-01T10:34:15;6.50;99.40
3466;DHT22;1747;48.884;9.160;2023-03-01T10:36:47;6.60;99.30
3466;DHT22;1747;48.884;9.160;2023-03-01T10:39:17;6.70;99.30
3466;DHT22;1747;48.884;9.160;2023-03-01T10:41:57;6.80;98.80
3466;DHT22;1747;48.884;9.160;2023-03-01T10:44:44;6.90;98.70
3466;DHT22;1747;48.884;9.160;2023-03-01T10:47:17;7.00;98.10
3466;DHT22;1747;48.884;9.160;2023-03-01T10:50:03;7.10;97.90
3466;DHT22;1747;48.884;9.160;2023-03-01T10:52:34;7.10;99.00
3466;DHT22;1747;48.884;9.160;2023-03-01T10:55:04;7.10;97.90
3466;DHT22;1747;48.884;9.160;2023-03-01T10:57:44;7.20;97.30
3466;DHT22;1747;48.884;9.160;2023-03-01T11:00:22;7.20;98.00
3466;DHT22;1747;48.884;9.160;2023-03-01T11:03:01;7.30;97.60
3466;DHT22;1747;48.884;9.160;2023-03-01T11:05:29;7.50;96.90
3466;DHT22;1747;48.884;9.160;2023-03-01T11:08:02;7.50;96.80
3466;DHT22;1747;48.884;9.160;2023-03-01T11:10:30;7.50;97.40
3466;DHT22;1747;48.884;9.160;2023-03-01T11:13:13;7.60;96.50
3466;DHT22;1747;48.884;9.160;2023-03-01T11:15:41;7.60;96.70
3466;DHT22;1747;48.884;9.160;2023-03-01T11:18:20;7.70;96.60
3466;DHT22;1747;48.884;9.160;2023-03-01T11:20:48;7.80;95.90
3466;DHT22;1747;48.884;9.160;2023-03-01T11:23:18;7.90;96.10
3466;DHT22;1747;48.884;9.160;2023-03-01T11:25:51;8.00;96.00
3466;DHT22;1747;48.884;9.160;2023-03-01T11:28:22;7.90;96.10
3466;DHT22;1747;48.884;9.160;2023-03-01T11:30:53;7.90;95.30
3466;DHT22;1747;48.884;9.160;2023-03-01T11:33:33;8.00;95.70
3466;DHT22;1747;48.884;9.160;2023-03-01T11:36:05;8.10;95.90
3466;DHT22;1747;48.884;9.160;2023-03-01T11:38:35;8.20;95.50
3466;DHT22;1747;48.884;9.160;2023-03-01T11:41:06;8.30;95.20
3466;DHT22;1747;48.884;9.160;2023-03-01T11:43:38;8.30;95.10
3466;DHT22;1747;48.884;9.160;2023-03-01T11:46:33;8.30;95.70
3466;DHT22;1747;48.884;9.160;2023-03-01T11:49:16;8.40;95.00
3466;DHT22;1747;48.884;9.160;2023-03-01T11:51:53;8.50;95.00
3466;DHT22;1747;48.884;9.160;2023-03-01T11:54:38;8.60;94.80
3466;DHT22;1747;48.884;9.160;2023-03-01T11:57:15;8.60;95.50
3466;DHT22;1747;48.884;9.160;2023-03-01T11:59:59;8.80;94.90
3466;DHT22;1747;48.884;9.160;2023-03-01T12:03:14;8.90;94.30
3466;DHT22;1747;48.884;9.160;2023-03-01T12:05:57;9.00;93.60
3466;DHT22;1747;48.884;9.160;2023-03-01T12:08:35;9.10;93.30
3466;DHT22;1747;48.884;9.160;2023-03-01T12:11:12;9.10;93.60
3466;DHT22;1747;48.884;9.160;2023-03-01T12:13:57;9.20;93.60
3466;DHT22;1747;48.884;9.160;2023-03-01T12:16:40;9.40;93.10
3466;DHT22;1747;48.884;9.160;2023-03-01T12:19:20;9.30;92.80
3466;DHT22;1747;48.884;9.160;2023-03-01T12:22:04;9.60;92.80
3466;DHT22;1747;48.884;9.160;2023-03-01T12:24:47;9.70;92.40
3466;DHT22;1747;48.884;9.160;2023-03-01T12:27:35;9.90;91.80
3466;DHT22;1747;48.884;9.160;2023-03-01T12:30:16;10.20;91.20
3466;DHT22;1747;48.884;9.160;2023-03-01T12:32:55;10.50;91.70
3466;DHT22;1747;48.884;9.160;2023-03-01T12:35:55;11.10;90.40
3466;DHT22;1747;48.884;9.160;2023-03-01T12:38:32;11.50;89.40
3466;DHT22;1747;48.884;9.160;2023-03-01T12:41:15;11.80;87.40
3466;DHT22;1747;48.884;9.160;2023-03-01T12:43:56;12.20;84.80
3466;DHT22;1747;48.884;9.160;2023-03-01T12:46:35;12.40;85.90
3466;DHT22;1747;48.884;9.160;2023-03-01T12:49:10;12.90;85.80
3466;DHT22;1747;48.884;9.160;2023-03-01T12:51:39;13.00;81.30
3466;DHT22;1747;48.884;9.160;2023-03-01T12:54:14;13.10;80.30
3466;DHT22;1747;48.884;9.160;2023-03-01T12:56:42;13.40;79.30
3466;DHT22;1747;48.884;9.160;2023-03-01T12:59:21;13.60;78.30
3466;DHT22;1747;48.884;9.160;2023-03-01T13:01:54;13.90;76.60
3466;DHT22;1747;48.884;9.160;2023-03-01T13:04:50;14.30;74.90
3466;DHT22;1747;48.884;9.160;2023-03-01T13:07:25;14.40;74.40
3466;DHT22;1747;48.884;9.160;2023-03-01T13:10:06;14.60;73.80
3466;DHT22;1747;48.884;9.160;2023-03-01T13:12:51;14.80;72.20
3466;DHT22;1747;48.884;9.160;2023-03-01T13:15:31;14.90;71.30
3466;DHT22;1747;48.884;9.160;2023-03-01T13:18:28;15.00;70.90
3466;DHT22;1747;48.884;9.160;2023-03-01T13:20:56;15.10;70.40
3466;DHT22;1747;48.884;9.160;2023-03-01T13:23:27;15.20;70.00
3466;DHT22;1747;48.884;9.160;2023-03-01T13:26:14;15.20;70.80
3466;DHT22;1747;48.884;9.160;2023-03-01T13:28:53;15.60;69.50
3466;DHT22;1747;48.884;9.160;2023-03-01T13:34:51;15.80;67.10
3466;DHT22;1747;48.884;9.160;2023-03-01T13:37:24;16.20;66.80
3466;DHT22;1747;48.884;9.160;2023-03-01T13:39:55;16.20;66.90
3466;DHT22;1747;48.884;9.160;2023-03-01T13:45:24;16.20;65.10
3466;DHT22;1747;48.884;9.160;2023-03-01T14:02:32;16.00;64.20
3466;DHT22;1747;48.884;9.160;2023-03-01T14:05:10;15.70;64.50
3466;DHT22;1747;48.884;9.160;2023-03-01T14:07:40;15.50;65.10
3466;DHT22;1747;48.884;9.160;2023-03-01T14:10:13;15.40;65.20
3466;DHT22;1747;48.884;9.160;2023-03-01T14:12:47;15.40;65.20
3466;DHT22;1747;48.884;9.160;2023-03-01T14:15:20;15.50;65.00
3466;DHT22;1747;48.884;9.160;2023-03-01T14:18:05;15.30;64.80
3466;DHT22;1747;48.884;9.160;2023-03-01T14:20:40;15.30;64.90
3466;DHT22;1747;48.884;9.160;2023-03-01T14:23:11;15.30;64.90
3466;DHT22;1747;48.884;9.160;2023-03-01T14:25:46;15.40;65.00
3466;DHT22;1747;48.884;9.160;2023-03-01T14:28:16;15.20;64.50
3466;DHT22;1747;48.884;9.160;2023-03-01T14:30:45;15.20;65.30
3466;DHT22;1747;48.884;9.160;2023-03-01T14:33:23;15.20;65.20
3466;DHT22;1747;48.884;9.160;2023-03-01T14:35:56;15.00;65.40
3466;DHT22;1747;48.884;9.160;2023-03-01T14:38:29;15.10;65.90
3466;DHT22;1747;48.884;9.160;2023-03-01T14:40:59;15.20;65.70
3466;DHT22;1747;48.884;9.160;2023-03-01T14:43:29;15.30;64.90
3466;DHT22;1747;48.884;9.160;2023-03-01T14:45:58;15.50;64.70
3466;DHT22;1747;48.884;9.160;2023-03-01T14:48:27;15.20;64.80
3466;DHT22;1747;48.884;9.160;2023-03-01T14:50:55;15.30;65.00
3466;DHT22;1747;48.884;9.160;2023-03-01T14:53:24;15.40;64.90
3466;DHT22;1747;48.884;9.160;2023-03-01T14:55:53;15.40;64.80
3466;DHT22;1747;48.884;9.160;2023-03-01T14:58:23;15.20;65.10
3466;DHT22;1747;48.884;9.160;2023-03-01T15:00:53;15.40;65.30
3466;DHT22;1747;48.884;9.160;2023-03-01T15:03:29;15.60;64.60
3466;DHT22;1747;48.884;9.160;2023-03-01T15:05:58;15.50;64.70
3466;DHT22;1747;48.884;9.160;2023-03-01T15:08:25;15.70;64.60
3466;DHT22;1747;48.884;9.160;2023-03-01T15:11:02;15.70;63.70
3466;DHT22;1747;48.884;9.160;2023-03-01T15:13:31;15.40;64.00
3466;DHT22;1747;48.884;9.160;2023-03-01T15:16:07;15.20;64.10
3466;DHT22;1747;48.884;9.160;2023-03-01T15:18:36;15.10;64.40
3466;DHT22;1747;48.884;9.160;2023-03-01T15:21:08;14.90;65.00
3466;DHT22;1747;48.884;9.160;2023-03-01T15:23:37;14.90;64.50
3466;DHT22;1747;48.884;9.160;2023-03-01T15:26:06;14.70;64.60
3466;DHT22;1747;48.884;9.160;2023-03-01T15:28:51;14.30;64.90
3466;DHT22;1747;48.884;9.160;2023-03-01T15:34:07;14.20;65.50
3466;DHT22;1747;48.884;9.160;2023-03-01T15:36:40;14.10;66.20
3466;DHT22;1747;48.884;9.160;2023-03-01T15:39:26;14.20;65.70
3466;DHT22;1747;48.884;9.160;2023-03-01T15:41:53;14.30;65.00
3466;DHT22;1747;48.884;9.160;2023-03-01T15:44:27;14.40;64.70
3466;DHT22;1747;48.884;9.160;2023-03-01T15:46:54;14.20;65.20
3466;DHT22;1747;48.884;9.160;2023-03-01T15:49:33;14.00;65.40
3466;DHT22;1747;48.884;9.160;2023-03-01T15:52:00;14.00;65.60
3466;DHT22;1747;48.884;9.160;2023-03-01T15:54:27;13.90;65.60
3466;DHT22;1747;48.884;9.160;2023-03-01T15:56:54;13.80;66.00
3466;DHT22;1747;48.884;9.160;2023-03-01T15:59:21;13.80;66.00
3466;DHT22;1747;48.884;9.160;2023-03-01T16:01:49;13.80;66.50
3466;DHT22;1747;48.884;9.160;2023-03-01T16:04:17;13.80;65.80
3466;DHT22;1747;48.884;9.160;2023-03-01T16:06:50;13.70;65.90
3466;DHT22;1747;48.884;9.160;2023-03-01T16:09:21;13.50;66.50
3466;DHT22;1747;48.884;9.160;2023-03-01T16:11:50;13.40;66.60
3466;DHT22;1747;48.884;9.160;2023-03-01T16:14:17;13.30;66.90
3466;DHT22;1747;48.884;9.160;2023-03-01T16:16:44;13.30;66.80
3466;DHT22;1747;48.884;9.160;2023-03-01T16:19:12;13.20;67.00
3466;DHT22;1747;48.884;9.160;2023-03-01T16:21:39;13.10;66.80
3466;DHT22;1747;48.884;9.160;2023-03-01T16:24:08;12.90;66.90
3466;DHT22;1747;48.884;9.160;2023-03-01T16:26:36;12.70;67.50
3466;DHT22;1747;48.884;9.160;2023-03-01T16:29:04;12.70;67.80
3466;DHT22;1747;48.884;9.160;2023-03-01T16:31:31;12.40;67.80
3466;DHT22;1747;48.884;9.160;2023-03-01T16:33:59;12.30;68.50
3466;DHT22;1747;48.884;9.160;2023-03-01T16:36:26;12.10;68.50
3466;DHT22;1747;48.884;9.160;2023-03-01T16:38:54;11.90;69.20
3466;DHT22;1747;48.884;9.160;2023-03-01T16:41:23;11.70;69.30
3466;DHT22;1747;48.884;9.160;2023-03-01T16:43:50;11.50;69.60
3466;DHT22;1747;48.884;9.160;2023-03-01T16:46:19;11.30;70.20
3466;DHT22;1747;48.884;9.160;2023-03-01T16:48:46;11.20;70.40
3466;DHT22;1747;48.884;9.160;2023-03-01T16:51:14;11.00;70.60
3466;DHT22;1747;48.884;9.160;2023-03-01T16:53:41;10.90;71.00
3466;DHT22;1747;48.884;9.160;2023-03-01T16:56:10;10.80;72.10
3466;DHT22;1747;48.884;9.160;2023-03-01T16:58:39;10.60;71.80
3466;DHT22;1747;48.884;9.160;2023-03-01T17:01:08;10.40;72.60
3466;DHT22;1747;48.884;9.160;2023-03-01T17:03:36;10.20;73.20
3466;DHT22;1747;48.884;9.160;2023-03-01T17:06:05;10.10;74.00
3466;DHT22;1747;48.884;9.160;2023-03-01T17:08:33;10.20;74.80
3466;DHT22;1747;48.884;9.160;2023-03-01T17:11:05;10.20;74.10
3466;DHT22;1747;48.884;9.160;2023-03-01T17:13:33;10.00;74.60
3466;DHT22;1747;48.884;9.160;2023-03-01T17:16:04;9.90;75.50
3466;DHT22;1747;48.884;9.160;2023-03-01T17:18:31;9.80;75.60
3466;DHT22;1747;48.884;9.160;2023-03-01T17:20:58;9.80;75.80
3466;DHT22;1747;48.884;9.160;2023-03-01T17:23:25;9.70;76.00
3466;DHT22;1747;48.884;9.160;2023-03-01T17:25:52;9.60;75.80
3466;DHT22;1747;48.884;9.160;2023-03-01T17:28:21;9.50;76.30
3466;DHT22;1747;48.884;9.160;2023-03-01T17:30:48;9.40;76.60
3466;DHT22;1747;48.884;9.160;2023-03-01T17:33:17;9.30;76.60
3466;DHT22;1747;48.884;9.160;2023-03-01T17:35:45;9.20;77.00
3466;DHT22;1747;48.884;9.160;2023-03-01T17:38:13;9.20;76.90
3466;DHT22;1747;48.884;9.160;2023-03-01T17:40:41;9.20;77.40
3466;DHT22;1747;48.884;9.160;2023-03-01T17:43:11;9.20;77.50
3466;DHT22;1747;48.884;9.160;2023-03-01T17:45:39;9.00;77.60
3466;DHT22;1747;48.884;9.160;2023-03-01T17:48:10;8.90;78.00
3466;DHT22;1747;48.884;9.160;2023-03-01T17:50:39;8.80;78.30
3466;DHT22;1747;48.884;9.160;2023-03-01T17:53:07;8.80;78.60
3466;DHT22;1747;48.884;9.160;2023-03-01T17:58:37;8.60;79.00
3466;DHT22;1747;48.884;9.160;2023-03-01T18:01:09;8.50;79.30
3466;DHT22;1747;48.884;9.160;2023-03-01T18:03:36;8.40;79.80
3466;DHT22;1747;48.884;9.160;2023-03-01T18:06:11;8.40;79.90
3466;DHT22;1747;48.884;9.160;2023-03-01T18:08:38;8.30;80.00
3466;DHT22;1747;48.884;9.160;2023-03-01T18:11:04;8.30;80.30
3466;DHT22;1747;48.884;9.160;2023-03-01T18:13:32;8.30;80.40
3466;DHT22;1747;48.884;9.160;2023-03-01T18:15:59;8.30;80.60
3466;DHT22;1747;48.884;9.160;2023-03-01T18:18:26;8.30;81.00
3466;DHT22;1747;48.884;9.160;2023-03-01T18:20:56;8.20;81.00
3466;DHT22;1747;48.884;9.160;2023-03-01T18:23:25;8.10;81.00
3466;DHT22;1747;48.884;9.160;2023-03-01T18:25:57;8.10;81.40
3466;DHT22;1747;48.884;9.160;2023-03-01T18:28:23;8.10;81.50
3466;DHT22;1747;48.884;9.160;2023-03-01T18:30:55;8.00;81.60
3466;DHT22;1747;48.884;9.160;2023-03-01T18:33:22;8.00;81.90
3466;DHT22;1747;48.884;9.160;2023-03-01T18:35:49;8.00;82.10
3466;DHT22;1747;48.884;9.160;2023-03-01T18:38:48;7.90;82.30
3466;DHT22;1747;48.884;9.160;2023-03-01T18:41:15;7.90;82.60
3466;DHT22;1747;48.884;9.160;2023-03-01T18:43:42;7.80;83.00
3466;DHT22;1747;48.884;9.160;2023-03-01T18:46:09;7.80;83.00
3466;DHT22;1747;48.884;9.160;2023-03-01T18:48:36;7.70;83.10
3466;DHT22;1747;48.884;9.160;2023-03-01T18:51:12;7.70;83.40
3466;DHT22;1747;48.884;9.160;2023-03-01T18:53:39;7.70;83.60
3466;DHT22;1747;48.884;9.160;2023-03-01T18:56:08;7.60;83.70
3466;DHT22;1747;48.884;9.160;2023-03-01T18:58:36;7.60;84.20
3466;DHT22;1747;48.884;9.160;2023-03-01T19:01:12;7.60;84.30
3466;DHT22;1747;48.884;9.160;2023-03-01T19:03:47;7.50;84.90
3466;DHT22;1747;48.884;9.160;2023-03-01T19:06:49;7.40;85.10
3466;DHT22;1747;48.884;9.160;2023-03-01T19:09:58;7.40;85.00
3466;DHT22;1747;48.884;9.160;2023-03-01T19:12:35;7.40;85.10
3466;DHT22;1747;48.884;9.160;2023-03-01T19:15:16;7.30;85.50
3466;DHT22;1747;48.884;9.160;2023-03-01T19:18:03;7.30;85.80
3466;DHT22;1747;48.884;9.160;2023-03-01T19:21:12;7.20;86.10
3466;DHT22;1747;48.884;9.160;2023-03-01T19:23:39;7.20;86.20
3466;DHT22;1747;48.884;9.160;2023-03-01T19:26:09;7.10;86.40
3466;DHT22;1747;48.884;9.160;2023-03-01T19:28:40;7.10;86.70
3466;DHT22;1747;48.884;9.160;2023-03-01T19:31:10;7.00;86.90
3466;DHT22;1747;48.884;9.160;2023-03-01T19:33:37;7.00;87.20
3466;DHT22;1747;48.884;9.160;2023-03-01T19:36:07;7.00;87.50
3466;DHT22;1747;48.884;9.160;2023-03-01T19:38:34;6.90;87.70
3466;DHT22;1747;48.884;9.160;2023-03-01T19:41:03;6.90;87.90
3466;DHT22;1747;48.884;9.160;2023-03-01T19:43:30;6.90;88.10
3466;DHT22;1747;48.884;9.160;2023-03-01T19:45:59;6.90;88.30
3466;DHT22;1747;48.884;9.160;2023-03-01T19:48:26;6.80;88.50
3466;DHT22;1747;48.884;9.160;2023-03-01T19:50:53;6.80;89.00
3466;DHT22;1747;48.884;9.160;2023-03-01T19:53:20;6.70;89.20
3466;DHT22;1747;48.884;9.160;2023-03-01T19:55:47;6.80;89.60
3466;DHT22;1747;48.884;9.160;2023-03-01T19:58:14;6.70;90.00
3466;DHT22;1747;48.884;9.160;2023-03-01T20:00:44;6.70;90.00
3466;DHT22;1747;48.884;9.160;2023-03-01T20:03:13;6.60;90.10
3466;DHT22;1747;48.884;9.160;2023-03-01T20:05:40;6.60;90.20
3466;DHT22;1747;48.884;9.160;2023-03-01T20:08:08;6.50;90.30
3466;DHT22;1747;48.884;9.160;2023-03-01T20:10:35;6.50;90.50
3466;DHT22;1747;48.884;9.160;2023-03-01T20:13:02;6.40;90.60